Time;durP1;ratioP1;P1;durP2;ratioP2;P2;SDS_P1;SDS_P2;PMS_P1;PMS_P2;Temp;Humidity;BMP_temperature;BMP_pressure;BME280_temperature;BME280_humidity;BME280_pressure;Samples;Min_cycle;Max_cycle;Signal;HPM_P1;HPM_P2
2024/01/14 00:00:14;;;;;;;36.78;18.75;;;;;;;2.32;100.00;101337.22;1047351;28;20302;-51
2024/01/14 00:00:46;;;;;;;35.40;19.10;;;;;;;2.35;100.00;101336.09;1047145;28;20303;-52
2024/01/14 00:01:18;;;;;;;32.45;19.48;;;;;;;2.38;100.00;101330.53;1047539;28;20295;-49
2024/01/14 00:01:54;;;;;;;32.25;17.33;;;;;;;2.30;100.00;101328.66;1047484;28;20291;-45
2024/01/14 00:02:26;;;;;;;32.80;17.05;;;;;;;2.31;100.00;101332.13;1047306;28;20355;-47
2024/01/14 00:02:57;;;;;;;33.85;19.45;;;;;;;2.41;100.00;101331.06;1047423;28;20298;-46
2024/01/14 00:03:29;;;;;;;34.30;18.55;;;;;;;2.43;100.00;101329.09;1047304;28;20297;-45
2024/01/14 00:04:01;;;;;;;34.20;18.00;;;;;;;2.40;100.00;101323.31;1047752;28;20291;-50
2024/01/14 00:04:32;;;;;;;35.78;18.52;;;;;;;2.42;100.00;101324.00;1047384;28;20979;-51
2024/01/14 00:05:06;;;;;;;33.85;18.27;;;;;;;2.42;100.00;101331.88;1047575;28;20294;-50
2024/01/14 00:05:37;;;;;;;31.98;18.40;;;;;;;2.38;100.00;101326.09;1047391;28;20637;-50
2024/01/14 00:06:09;;;;;;;36.92;19.63;;;;;;;2.40;100.00;101323.31;1047561;28;20781;-52
2024/01/14 00:06:42;;;;;;;33.58;18.27;;;;;;;2.38;100.00;101327.91;1047437;28;20410;-53
2024/01/14 00:07:13;;;;;;;33.05;18.73;;;;;;;2.43;100.00;101323.03;1047381;28;20704;-51
2024/01/14 00:07:45;;;;;;;36.42;19.20;;;;;;;2.44;100.00;101322.03;1047212;28;20300;-51
2024/01/14 00:08:17;;;;;;;32.67;18.90;;;;;;;2.46;100.00;101330.59;1047983;28;20296;-50
2024/01/14 00:08:48;;;;;;;37.13;19.65;;;;;;;2.42;100.00;101330.09;1047676;28;20792;-51
2024/01/14 00:09:20;;;;;;;33.88;19.50;;;;;;;2.37;100.00;101326.25;1047328;28;20684;-50
2024/01/14 00:09:52;;;;;;;31.92;18.67;;;;;;;2.35;100.00;101328.22;1046919;28;20313;-51
2024/01/14 00:10:24;;;;;;;38.38;18.58;;;;;;;2.39;100.00;101330.38;1047382;28;20303;-51
2024/01/14 00:10:56;;;;;;;34.53;19.17;;;;;;;2.41;100.00;101330.22;1047316;28;20290;-53
2024/01/14 00:11:27;;;;;;;33.53;18.75;;;;;;;2.41;100.00;101324.97;1047542;28;20774;-52
2024/01/14 00:11:59;;;;;;;36.80;20.73;;;;;;;2.36;100.00;101329.88;1047512;28;20310;-46
2024/01/14 00:12:31;;;;;;;34.38;19.35;;;;;;;2.37;100.00;101327.09;1047364;28;20318;-47
2024/01/14 00:13:05;;;;;;;32.40;19.10;;;;;;;2.35;100.00;101326.41;1047464;28;20371;-46
2024/01/14 00:13:37;;;;;;;30.38;18.25;;;;;;;2.38;100.00;101327.91;1048041;28;20803;-45
2024/01/14 00:14:09;;;;;;;34.42;18.75;;;;;;;2.44;100.00;101325.50;1047705;28;20906;-45
2024/01/14 00:14:41;;;;;;;35.15;20.88;;;;;;;2.37;100.00;101324.47;1047804;28;20304;-47
2024/01/14 00:15:14;;;;;;;32.42;19.50;;;;;;;2.40;100.00;101325.94;1047476;28;20302;-46
2024/01/14 00:15:46;;;;;;;34.20;19.38;;;;;;;2.41;100.00;101322.34;1047756;28;20379;-45
2024/01/14 00:16:17;;;;;;;40.63;19.77;;;;;;;2.38;100.00;101322.66;1047327;28;20486;-48
2024/01/14 00:16:49;;;;;;;37.83;20.05;;;;;;;2.40;100.00;101329.41;1047750;28;20299;-45
2024/01/14 00:17:21;;;;;;;32.92;19.20;;;;;;;2.43;100.00;101328.28;1048296;28;20298;-52
2024/01/14 00:17:52;;;;;;;32.10;18.70;;;;;;;2.41;100.00;101317.09;1045803;28;20792;-51
2024/01/14 00:18:24;;;;;;;33.85;20.10;;;;;;;2.42;100.00;101326.63;1047737;28;20440;-51
2024/01/14 00:18:56;;;;;;;34.65;19.85;;;;;;;2.40;100.00;101324.16;1047470;28;20780;-51
2024/01/14 00:19:28;;;;;;;36.05;19.35;;;;;;;2.39;100.00;101329.56;1047714;28;20796;-50
2024/01/14 00:20:00;;;;;;;33.72;19.35;;;;;;;2.36;100.00;101327.25;1047812;28;20847;-51
2024/01/14 00:20:32;;;;;;;40.25;20.42;;;;;;;2.40;100.00;101324.16;1047927;28;20684;-53
2024/01/14 00:21:03;;;;;;;33.78;19.38;;;;;;;2.38;100.00;101320.03;1047829;28;20290;-51
2024/01/14 00:21:36;;;;;;;38.20;20.98;;;;;;;2.41;100.00;101322.34;1048192;28;20291;-50
2024/01/14 00:22:07;;;;;;;39.47;20.55;;;;;;;2.42;100.00;101318.75;1047985;28;20339;-52
2024/01/14 00:22:39;;;;;;;38.60;20.45;;;;;;;2.41;100.00;101319.72;1047596;28;20792;-53
2024/01/14 00:23:11;;;;;;;41.22;20.60;;;;;;;2.39;100.00;101316.41;1047456;28;20799;-51
2024/01/14 00:23:42;;;;;;;34.53;19.40;;;;;;;2.43;100.00;101323.03;1047880;28;20307;-50
2024/01/14 00:24:15;;;;;;;35.17;20.13;;;;;;;2.39;100.00;101324.31;1047681;28;20315;-53
2024/01/14 00:24:47;;;;;;;41.15;21.98;;;;;;;2.40;100.00;101318.06;1047809;28;20303;-47
2024/01/14 00:25:21;;;;;;;40.03;20.55;;;;;;;2.46;100.00;101325.34;1047709;28;20295;-52
2024/01/14 00:25:53;;;;;;;38.22;21.50;;;;;;;2.44;100.00;101324.66;1047489;28;20291;-53
2024/01/14 00:26:27;;;;;;;36.88;21.08;;;;;;;2.44;100.00;101316.78;1048005;28;20806;-51
2024/01/14 00:26:59;;;;;;;41.90;20.27;;;;;;;2.41;100.00;101315.28;1047463;28;20385;-50
2024/01/14 00:27:31;;;;;;;41.13;21.02;;;;;;;2.42;100.00;101316.13;1047829;28;20286;-47
2024/01/14 00:28:03;;;;;;;37.70;21.30;;;;;;;2.43;100.00;101317.75;1047788;28;20299;-47
2024/01/14 00:28:35;;;;;;;40.05;21.90;;;;;;;2.39;100.00;101316.41;1047403;28;20299;-45
2024/01/14 00:29:07;;;;;;;41.20;22.73;;;;;;;2.43;100.00;101315.13;1046869;28;20436;-46
2024/01/14 00:29:39;;;;;;;38.85;21.65;;;;;;;2.43;100.00;101315.13;1046991;28;20294;-46
2024/01/14 00:30:11;;;;;;;40.05;22.25;;;;;;;2.43;100.00;101325.66;1047316;28;20302;-51
2024/01/14 00:30:43;;;;;;;38.92;22.38;;;;;;;2.45;100.00;101319.25;1047207;28;20810;-50
2024/01/14 00:31:15;;;;;;;38.42;22.65;;;;;;;2.42;100.00;101316.94;1048073;28;20313;-51
2024/01/14 00:31:47;;;;;;;44.50;22.75;;;;;;;2.38;100.00;101310.34;1047502;28;20303;-50
2024/01/14 00:32:21;;;;;;;39.25;22.95;;;;;;;2.36;100.00;101311.47;1047832;28;20625;-52
2024/01/14 00:32:52;;;;;;;43.20;23.00;;;;;;;2.39;100.00;101305.91;1047791;28;20355;-51
2024/01/14 00:33:24;;;;;;;42.78;23.27;;;;;;;2.37;100.00;101310.50;1047284;28;20318;-52
2024/01/14 00:33:57;;;;;;;38.42;22.15;;;;;;;2.37;100.00;101313.13;1047682;28;20337;-50
2024/01/14 00:34:29;;;;;;;43.83;23.63;;;;;;;2.35;100.00;101312.44;1047654;28;20294;-53
2024/01/14 00:35:01;;;;;;;47.33;24.00;;;;;;;2.35;100.00;101309.81;1047448;28;20291;-50
2024/01/14 00:35:36;;;;;;;41.63;22.90;;;;;;;2.37;100.00;101306.06;1047275;28;20313;-46
2024/01/14 00:36:08;;;;;;;45.88;22.95;;;;;;;2.41;100.00;101294.25;1047533;28;20800;-46
2024/01/14 00:36:40;;;;;;;45.05;23.60;;;;;;;2.38;100.00;101304.25;1047228;28;20849;-46
2024/01/14 00:37:12;;;;;;;44.95;23.10;;;;;;;2.33;100.00;101302.09;1047654;28;20334;-46
2024/01/14 00:37:43;;;;;;;43.63;24.25;;;;;;;2.34;100.00;101308.16;1048305;28;20290;-52
2024/01/14 00:38:15;;;;;;;38.90;22.02;;;;;;;2.34;100.00;101308.16;1047734;28;20316;-46
2024/01/14 00:38:47;;;;;;;46.03;24.05;;;;;;;2.32;100.00;101300.44;1047785;28;20303;-45
2024/01/14 00:39:19;;;;;;;44.42;24.25;;;;;;;2.33;100.00;101298.63;1047376;28;20295;-45
2024/01/14 00:39:51;;;;;;;41.05;23.55;;;;;;;2.31;100.00;101287.44;1047681;28;20831;-45
2024/01/14 00:40:22;;;;;;;48.60;25.17;;;;;;;2.31;100.00;101303.22;1047613;28;20808;-52
2024/01/14 00:40:54;;;;;;;43.28;24.25;;;;;;;2.34;100.00;101290.59;1047800;28;21338;-51
2024/01/14 00:41:26;;;;;;;40.97;23.65;;;;;;;2.33;100.00;101290.75;1047792;28;20428;-52
2024/01/14 00:41:57;;;;;;;43.35;23.70;;;;;;;2.34;100.00;101293.22;1048140;28;20306;-50
2024/01/14 00:42:29;;;;;;;46.40;24.85;;;;;;;2.36;100.00;101293.88;1047838;28;20302;-50
2024/01/14 00:43:01;;;;;;;44.05;24.67;;;;;;;2.36;100.00;101298.31;1047149;28;20866;-45
2024/01/14 00:43:32;;;;;;;43.75;24.38;;;;;;;2.31;100.00;101292.69;1047453;28;20648;-51
2024/01/14 00:44:04;;;;;;;42.85;24.63;;;;;;;2.31;100.00;101298.78;1047421;28;20299;-52
2024/01/14 00:44:36;;;;;;;51.85;24.75;;;;;;;2.32;100.00;101294.34;1047346;28;20726;-51
2024/01/14 00:45:08;;;;;;;44.35;25.45;;;;;;;2.30;100.00;101291.88;1047433;28;20301;-51
2024/01/14 00:45:39;;;;;;;45.75;24.52;;;;;;;2.29;100.00;101299.91;1047647;28;20337;-50
2024/01/14 00:46:11;;;;;;;46.60;23.73;;;;;;;2.32;100.00;101299.59;1047837;28;20283;-47
2024/01/14 00:46:43;;;;;;;45.20;24.52;;;;;;;2.29;100.00;101295.47;1047552;28;20409;-46
2024/01/14 00:47:15;;;;;;;47.10;25.02;;;;;;;2.25;100.00;101294.13;1047611;28;20313;-47
2024/01/14 00:47:46;;;;;;;45.47;25.50;;;;;;;2.28;100.00;101293.00;1047739;28;20302;-46
2024/01/14 00:48:19;;;;;;;46.15;24.95;;;;;;;2.31;100.00;101290.06;1047682;28;20644;-46
2024/01/14 00:48:50;;;;;;;41.97;23.55;;;;;;;2.26;100.00;101287.91;1047593;28;20762;-46
2024/01/14 00:49:22;;;;;;;47.58;24.52;;;;;;;2.32;100.00;101289.09;1047648;28;20286;-47
2024/01/14 00:49:54;;;;;;;40.25;23.77;;;;;;;2.35;100.00;101294.88;1047735;28;20312;-48
2024/01/14 00:50:25;;;;;;;45.92;24.45;;;;;;;2.35;100.00;101286.16;1048136;28;20294;-46
2024/01/14 00:50:57;;;;;;;47.53;24.75;;;;;;;2.31;100.00;101282.19;1047491;28;20298;-46
2024/01/14 00:51:29;;;;;;;46.22;25.77;;;;;;;2.30;100.00;101285.78;1047399;28;20322;-46
2024/01/14 00:52:01;;;;;;;44.53;24.48;;;;;;;2.34;100.00;101287.97;1047553;28;20290;-48
2024/01/14 00:52:33;;;;;;;42.15;24.17;;;;;;;2.36;100.00;101282.56;1047406;28;20339;-46
2024/01/14 00:53:05;;;;;;;46.80;24.23;;;;;;;2.33;100.00;101283.69;1047644;28;20754;-50
2024/01/14 00:53:36;;;;;;;43.38;23.42;;;;;;;2.37;100.00;101287.66;1047434;28;20299;-51
2024/01/14 00:54:08;;;;;;;42.63;23.20;;;;;;;2.31;100.00;101282.19;1048129;28;20717;-51
2024/01/14 00:54:40;;;;;;;39.58;22.25;;;;;;;2.32;100.00;101273.31;1047899;28;20279;-53
2024/01/14 00:55:11;;;;;;;45.10;24.05;;;;;;;2.35;100.00;101278.28;1047638;28;20354;-52
2024/01/14 00:55:44;;;;;;;41.05;23.05;;;;;;;2.27;100.00;101276.41;1047717;28;20302;-51
2024/01/14 00:56:16;;;;;;;43.92;25.25;;;;;;;2.25;100.00;101267.03;1044737;28;20689;-52
2024/01/14 00:56:48;;;;;;;47.20;23.33;;;;;;;2.27;100.00;101271.16;1047442;28;20330;-51
2024/01/14 00:57:19;;;;;;;42.35;24.30;;;;;;;2.28;100.00;101270.19;1046966;28;20294;-51
2024/01/14 00:57:51;;;;;;;48.55;24.15;;;;;;;2.31;100.00;101279.56;1042892;28;20303;-50
2024/01/14 00:58:23;;;;;;;51.33;23.75;;;;;;;2.30;100.00;101270.03;1042590;28;20295;-50
2024/01/14 00:58:54;;;;;;;46.78;24.63;;;;;;;2.31;100.00;101271.66;1041320;28;20311;-50
2024/01/14 00:59:26;;;;;;;43.83;24.02;;;;;;;2.29;100.00;101276.25;1039661;28;20443;-51
2024/01/14 00:59:58;;;;;;;47.20;23.67;;;;;;;2.30;100.00;101273.47;1047047;28;20300;-51
2024/01/14 01:00:30;;;;;;;49.28;25.95;;;;;;;2.30;100.00;101275.28;1047139;28;20298;-52
2024/01/14 01:01:02;;;;;;;40.45;24.45;;;;;;;2.31;100.00;101276.94;1046888;28;20381;-46
2024/01/14 01:01:34;;;;;;;42.17;23.70;;;;;;;2.29;100.00;101271.00;1047408;28;20827;-47
2024/01/14 01:02:06;;;;;;;48.17;24.45;;;;;;;2.30;100.00;101264.75;1047219;28;20294;-47
2024/01/14 01:02:37;;;;;;;49.35;24.98;;;;;;;2.27;100.00;101265.06;1047729;28;20811;-46
2024/01/14 01:03:09;;;;;;;41.78;24.77;;;;;;;2.29;100.00;101269.19;1045684;28;20442;-46
2024/01/14 01:03:41;;;;;;;46.47;24.17;;;;;;;2.29;100.00;101265.75;1047147;28;20790;-48
2024/01/14 01:04:12;;;;;;;44.15;23.17;;;;;;;2.31;100.00;101263.78;1047525;28;20325;-52
2024/01/14 01:04:44;;;;;;;48.13;26.60;;;;;;;2.28;100.00;101261.47;1046997;28;20303;-52
2024/01/14 01:05:16;;;;;;;43.25;23.38;;;;;;;2.28;100.00;101266.72;1047383;28;20306;-51
2024/01/14 01:05:48;;;;;;;49.97;24.42;;;;;;;2.30;100.00;101264.75;1047224;28;20866;-50
2024/01/14 01:06:20;;;;;;;44.55;24.23;;;;;;;2.32;100.00;101268.06;1047174;28;20347;-45
2024/01/14 01:06:51;;;;;;;43.38;23.52;;;;;;;2.31;100.00;101269.03;1047544;28;20291;-46
2024/01/14 01:07:24;;;;;;;44.60;23.73;;;;;;;2.29;100.00;101268.38;1045125;28;20444;-46
2024/01/14 01:07:56;;;;;;;47.22;24.48;;;;;;;2.26;100.00;101263.41;1047054;28;20335;-46
2024/01/14 01:08:27;;;;;;;45.00;24.63;;;;;;;2.29;100.00;101257.84;1047178;28;20303;-45
2024/01/14 01:09:00;;;;;;;42.25;23.33;;;;;;;2.30;100.00;101265.59;1047627;28;20638;-51
2024/01/14 01:09:31;;;;;;;41.45;23.10;;;;;;;2.33;100.00;101259.19;1047317;28;20338;-52
2024/01/14 01:10:05;;;;;;;48.00;24.00;;;;;;;2.31;100.00;101259.34;1046557;28;20598;-50
2024/01/14 01:10:37;;;;;;;46.15;23.90;;;;;;;2.30;100.00;101270.03;1047419;28;20307;-51
2024/01/14 01:11:09;;;;;;;41.75;22.00;;;;;;;2.24;100.00;101270.63;1047494;28;20303;-50
2024/01/14 01:11:40;;;;;;;45.03;23.30;;;;;;;2.24;100.00;101257.50;1047472;28;20313;-51
2024/01/14 01:12:12;;;;;;;37.13;23.30;;;;;;;2.27;100.00;101257.19;1047829;28;20294;-50
2024/01/14 01:12:44;;;;;;;38.80;22.38;;;;;;;2.27;100.00;101257.19;1047156;28;20306;-52
2024/01/14 01:13:15;;;;;;;41.65;22.88;;;;;;;2.30;100.00;101262.97;1047287;28;20781;-53
2024/01/14 01:13:47;;;;;;;37.75;21.80;;;;;;;2.27;100.00;101258.00;1047346;28;20303;-52
2024/01/14 01:14:19;;;;;;;41.85;22.98;;;;;;;2.29;100.00;101258.69;1047277;28;20299;-51
2024/01/14 01:14:50;;;;;;;39.55;21.77;;;;;;;2.31;100.00;101261.16;1047218;28;21635;-53
2024/01/14 01:15:22;;;;;;;38.95;21.25;;;;;;;2.29;100.00;101263.13;1047924;28;20311;-52
2024/01/14 01:15:54;;;;;;;40.72;23.77;;;;;;;2.29;100.00;101269.19;1047967;28;20301;-52
2024/01/14 01:16:25;;;;;;;39.13;22.30;;;;;;;2.25;100.00;101267.84;1047649;28;20298;-51
2024/01/14 01:16:57;;;;;;;36.13;21.63;;;;;;;2.28;100.00;101266.72;1047489;28;20351;-51
2024/01/14 01:17:29;;;;;;;42.38;22.90;;;;;;;2.28;100.00;101262.28;1047453;28;20294;-52
2024/01/14 01:18:00;;;;;;;40.92;23.67;;;;;;;2.31;100.00;101266.41;1047052;28;20298;-53
2024/01/14 01:18:32;;;;;;;40.53;22.58;;;;;;;2.33;100.00;101260.03;1047735;28;20299;-53
2024/01/14 01:19:04;;;;;;;38.72;22.27;;;;;;;2.32;100.00;101262.81;1047431;28;20294;-52
2024/01/14 01:19:36;;;;;;;47.35;23.08;;;;;;;2.33;100.00;101259.19;1047458;28;20899;-51
2024/01/14 01:20:08;;;;;;;41.38;22.38;;;;;;;2.32;100.00;101262.81;1047452;28;20828;-51
2024/01/14 01:20:40;;;;;;;42.03;22.88;;;;;;;2.31;100.00;101256.72;1040830;28;20300;-53
2024/01/14 01:21:17;;;;;;;38.72;21.13;;;;;;;2.35;100.00;101254.63;1042874;28;20301;-51
2024/01/14 01:21:49;;;;;;;39.80;22.20;;;;;;;2.39;100.00;101261.22;1044283;28;20393;-51
2024/01/14 01:22:21;;;;;;;35.15;19.77;;;;;;;2.41;100.00;101261.88;1047088;28;20306;-50
2024/01/14 01:22:53;;;;;;;38.35;21.80;;;;;;;2.38;100.00;101251.69;1047181;28;20306;-51
2024/01/14 01:23:25;;;;;;;42.25;22.15;;;;;;;2.37;100.00;101261.38;1047627;28;20314;-51
2024/01/14 01:23:56;;;;;;;42.70;22.95;;;;;;;2.34;100.00;101256.41;1047284;28;20303;-48
2024/01/14 01:24:28;;;;;;;39.35;22.15;;;;;;;2.34;100.00;101250.34;1047106;28;20310;-47
2024/01/14 01:25:00;;;;;;;36.30;20.75;;;;;;;2.36;100.00;101251.84;1047493;28;20299;-45
2024/01/14 01:25:32;;;;;;;36.40;20.88;;;;;;;2.40;100.00;101255.81;1047738;28;20333;-46
2024/01/14 01:26:03;;;;;;;32.20;19.30;;;;;;;2.29;100.00;101244.72;1045341;28;20303;-46
2024/01/14 01:26:35;;;;;;;35.10;20.73;;;;;;;2.31;100.00;101250.66;1047413;28;20357;-46
2024/01/14 01:27:06;;;;;;;37.08;21.50;;;;;;;2.27;100.00;101252.75;1047347;28;20295;-46
2024/01/14 01:27:38;;;;;;;41.35;22.45;;;;;;;2.23;100.00;101248.78;1047317;28;20408;-46
2024/01/14 01:28:10;;;;;;;35.70;20.88;;;;;;;2.20;100.00;101243.84;1047609;28;20436;-48
2024/01/14 01:28:42;;;;;;;35.83;19.65;;;;;;;2.26;100.00;101242.41;1047497;28;20310;-48
2024/01/14 01:29:13;;;;;;;37.58;21.27;;;;;;;2.23;100.00;101240.06;1047243;28;20302;-45
2024/01/14 01:29:45;;;;;;;36.00;19.48;;;;;;;2.14;100.00;101242.63;1047501;28;20301;-45
2024/01/14 01:30:17;;;;;;;34.13;19.02;;;;;;;2.15;100.00;101244.25;1047272;28;20306;-46
2024/01/14 01:30:49;;;;;;;32.78;19.95;;;;;;;2.12;100.00;101244.56;1047170;28;20432;-46
2024/01/14 01:31:21;;;;;;;30.88;18.50;;;;;;;2.06;100.00;101241.72;1047171;28;20301;-48
2024/01/14 01:32:09;;;;;;;36.70;17.65;;;;;;;2.06;100.00;101239.94;1047274;28;20791;-45
2024/01/14 01:32:41;;;;;;;30.23;18.85;;;;;;;2.07;100.00;101238.94;1047170;28;20332;-45
2024/01/14 01:33:13;;;;;;;32.75;18.45;;;;;;;2.05;100.00;101248.78;1047671;28;20795;-46
2024/01/14 01:33:44;;;;;;;32.70;18.65;;;;;;;2.08;100.00;101240.59;1047397;28;20385;-47
2024/01/14 01:34:16;;;;;;;33.63;18.17;;;;;;;2.05;100.00;101234.81;1047745;28;20291;-47
2024/01/14 01:34:48;;;;;;;31.90;18.40;;;;;;;2.04;100.00;101235.81;1047347;28;20385;-45
2024/01/14 01:35:20;;;;;;;38.60;21.10;;;;;;;2.04;100.00;101239.25;1047414;28;20800;-46
2024/01/14 01:35:52;;;;;;;28.40;17.33;;;;;;;1.98;100.00;101242.50;1047268;28;20401;-49
2024/01/14 01:36:24;;;;;;;30.63;18.05;;;;;;;1.98;100.00;101234.59;1046944;28;20310;-49
2024/01/14 01:36:55;;;;;;;30.88;17.70;;;;;;;2.02;100.00;101238.56;1047074;28;20340;-47
2024/01/14 01:37:27;;;;;;;31.25;17.73;;;;;;;1.99;100.00;101238.06;1042913;28;20394;-45
2024/01/14 01:37:58;;;;;;;29.05;17.77;;;;;;;1.99;100.00;101233.63;1043575;28;20294;-45
2024/01/14 01:38:30;;;;;;;28.75;17.98;;;;;;;2.01;100.00;101230.84;1043805;28;20760;-46
2024/01/14 01:39:03;;;;;;;29.33;16.92;;;;;;;1.99;100.00;101231.00;1047048;28;20291;-46
2024/01/14 01:39:34;;;;;;;24.23;15.73;;;;;;;2.04;100.00;101223.50;1047520;28;20298;-53
2024/01/14 01:40:09;;;;;;;31.08;17.42;;;;;;;2.04;100.00;101230.53;1047346;28;20384;-50
2024/01/14 01:40:41;;;;;;;29.65;17.42;;;;;;;2.00;100.00;101240.53;1047291;28;20389;-48
2024/01/14 01:41:12;;;;;;;34.00;17.80;;;;;;;2.04;100.00;101230.53;1047509;28;20385;-52
2024/01/14 01:41:44;;;;;;;31.55;17.23;;;;;;;2.06;100.00;101242.56;1047121;28;20299;-52
2024/01/14 01:42:16;;;;;;;28.95;17.73;;;;;;;2.01;100.00;101234.31;1047089;28;20291;-46
2024/01/14 01:42:49;;;;;;;30.58;16.15;;;;;;;2.05;100.00;101238.28;1047398;28;20310;-47
2024/01/14 01:43:21;;;;;;;32.20;18.15;;;;;;;2.04;100.00;101231.38;1047431;28;20761;-46
2024/01/14 01:43:52;;;;;;;27.65;15.55;;;;;;;2.05;100.00;101230.38;1045469;28;20288;-46
2024/01/14 01:44:24;;;;;;;33.35;17.23;;;;;;;2.06;100.00;101232.03;1047243;28;20653;-48
2024/01/14 01:44:56;;;;;;;32.20;17.70;;;;;;;2.11;100.00;101229.78;1047502;28;20328;-45
2024/01/14 01:45:27;;;;;;;29.45;16.58;;;;;;;2.09;100.00;101226.47;1047471;28;20306;-45
2024/01/14 01:45:59;;;;;;;29.85;17.55;;;;;;;2.12;100.00;101231.44;1047295;28;20359;-45
2024/01/14 01:46:32;;;;;;;29.77;16.85;;;;;;;2.11;100.00;101224.53;1047120;28;20286;-45
2024/01/14 01:47:04;;;;;;;29.77;16.17;;;;;;;2.10;100.00;101228.13;1046738;28;20349;-48
2024/01/14 01:47:36;;;;;;;28.35;16.50;;;;;;;2.11;100.00;101228.97;1047495;28;20879;-52
2024/01/14 01:48:08;;;;;;;27.20;17.65;;;;;;;2.11;100.00;101229.78;1041933;28;20363;-50
2024/01/14 01:48:40;;;;;;;32.80;17.83;;;;;;;2.11;100.00;101229.78;1047166;28;20644;-52
2024/01/14 01:49:12;;;;;;;29.80;17.63;;;;;;;2.13;100.00;101233.09;1046590;28;20302;-51
2024/01/14 01:49:44;;;;;;;28.45;15.55;;;;;;;2.18;100.00;101224.72;1043621;28;20303;-45
2024/01/14 01:50:15;;;;;;;28.27;17.67;;;;;;;2.15;100.00;101227.66;1046946;28;20759;-46
2024/01/14 01:50:47;;;;;;;28.38;16.00;;;;;;;2.13;100.00;101232.25;1046794;28;20368;-45
2024/01/14 01:51:19;;;;;;;26.45;15.75;;;;;;;2.13;100.00;101227.81;1047278;28;20757;-45
2024/01/14 01:51:50;;;;;;;25.83;15.82;;;;;;;2.10;100.00;101222.88;1047830;28;20310;-47
2024/01/14 01:52:23;;;;;;;30.40;17.42;;;;;;;2.12;100.00;101231.44;1046741;28;20303;-47
2024/01/14 01:52:55;;;;;;;30.38;18.05;;;;;;;2.14;100.00;101224.22;1042967;28;20307;-46
2024/01/14 01:53:27;;;;;;;27.15;17.80;;;;;;;2.15;100.00;101225.03;1038887;28;20357;-45
2024/01/14 01:53:59;;;;;;;32.92;16.98;;;;;;;2.12;100.00;101225.34;1039116;28;20306;-46
2024/01/14 01:54:31;;;;;;;26.60;15.40;;;;;;;2.10;100.00;101222.88;1043740;28;20812;-46
2024/01/14 01:55:04;;;;;;;28.38;15.77;;;;;;;2.12;100.00;101226.19;1046868;28;20435;-51
2024/01/14 01:55:35;;;;;;;22.63;15.60;;;;;;;2.09;100.00;101221.22;1043362;28;20350;-50
2024/01/14 01:56:07;;;;;;;28.45;17.52;;;;;;;2.09;100.00;101225.66;1047053;28;20677;-53
2024/01/14 01:56:38;;;;;;;29.92;17.23;;;;;;;2.09;100.00;101226.47;1047021;28;20293;-51
2024/01/14 01:57:10;;;;;;;34.05;17.80;;;;;;;2.08;100.00;101224.84;1040906;28;20284;-50
2024/01/14 01:57:43;;;;;;;26.80;16.88;;;;;;;2.10;100.00;101225.50;1042756;28;20383;-49
2024/01/14 01:58:14;;;;;;;31.77;17.67;;;;;;;2.02;100.00;101224.63;1042818;28;20298;-46
2024/01/14 01:58:46;;;;;;;26.23;16.55;;;;;;;1.99;100.00;101228.38;1040271;28;20515;-47
2024/01/14 01:59:19;;;;;;;28.73;16.48;;;;;;;1.99;100.00;101228.38;1043537;28;20303;-46
2024/01/14 01:59:50;;;;;;;31.50;16.73;;;;;;;1.99;100.00;101225.75;1043446;28;20823;-47
2024/01/14 02:00:22;;;;;;;29.00;18.20;;;;;;;2.01;100.00;101218.53;1042387;28;20295;-48
2024/01/14 02:00:54;;;;;;;29.48;17.85;;;;;;;1.99;100.00;101220.50;1042387;28;20665;-46
2024/01/14 02:01:26;;;;;;;26.67;16.10;;;;;;;2.02;100.00;101216.75;1035983;28;20382;-46
2024/01/14 02:01:58;;;;;;;27.98;16.63;;;;;;;1.97;100.00;101217.19;1039018;28;20304;-46
2024/01/14 02:02:35;;;;;;;28.67;15.55;;;;;;;1.94;100.00;101222.75;1042883;28;20433;-46
2024/01/14 02:03:09;;;;;;;24.50;16.25;;;;;;;1.91;100.00;101223.03;1037786;28;20845;-46
2024/01/14 02:03:41;;;;;;;25.90;16.75;;;;;;;1.93;100.00;101222.91;1038612;28;20300;-45
2024/01/14 02:04:16;;;;;;;26.52;16.23;;;;;;;1.93;100.00;101215.84;1037422;28;20410;-46
2024/01/14 02:04:47;;;;;;;27.92;16.30;;;;;;;1.96;100.00;101219.97;1039395;28;20463;-48
2024/01/14 02:05:20;;;;;;;30.30;17.88;;;;;;;1.90;100.00;101208.25;1039644;28;20300;-48
2024/01/14 02:05:52;;;;;;;27.02;16.23;;;;;;;1.89;100.00;101219.72;1038363;28;20307;-46
2024/01/14 02:06:27;;;;;;;26.05;15.10;;;;;;;1.85;100.00;101224.47;1035130;28;20432;-47
2024/01/14 02:06:58;;;;;;;25.58;16.10;;;;;;;1.92;100.00;101224.72;1039608;28;20728;-46
2024/01/14 02:07:30;;;;;;;27.65;16.30;;;;;;;1.94;100.00;101212.25;1042579;28;20651;-46
2024/01/14 02:08:02;;;;;;;33.05;15.85;;;;;;;1.93;100.00;101212.41;1046624;28;20363;-45
2024/01/14 02:08:34;;;;;;;28.38;16.85;;;;;;;1.92;100.00;101214.19;1047180;28;20306;-46
2024/01/14 02:09:07;;;;;;;26.55;16.52;;;;;;;1.91;100.00;101212.53;1047346;28;20665;-46
2024/01/14 02:09:39;;;;;;;26.77;16.42;;;;;;;1.90;100.00;101210.03;1047341;28;20294;-45
2024/01/14 02:10:11;;;;;;;26.98;15.65;;;;;;;1.90;100.00;101218.75;1046998;28;20290;-48
2024/01/14 02:10:42;;;;;;;26.55;16.13;;;;;;;1.91;100.00;101211.69;1046934;28;20299;-46
2024/01/14 02:11:14;;;;;;;27.75;15.30;;;;;;;1.92;100.00;101214.19;1047019;28;20298;-45
2024/01/14 02:11:46;;;;;;;30.30;16.38;;;;;;;1.89;100.00;101211.84;1046821;28;20309;-46
2024/01/14 02:12:17;;;;;;;28.15;15.18;;;;;;;1.82;100.00;101214.25;1047020;28;20987;-47
2024/01/14 02:12:49;;;;;;;26.52;16.50;;;;;;;1.82;100.00;101202.94;1046785;28;20476;-46
2024/01/14 02:13:21;;;;;;;26.83;16.05;;;;;;;1.73;100.00;101214.34;1047083;28;20652;-46
2024/01/14 02:13:53;;;;;;;26.33;16.02;;;;;;;1.73;100.00;101209.91;1047186;28;20755;-46
2024/01/14 02:14:24;;;;;;;32.33;15.88;;;;;;;1.78;100.00;101212.09;1046175;28;20831;-48
2024/01/14 02:14:56;;;;;;;25.42;15.57;;;;;;;1.78;100.00;101214.72;1046577;28;20436;-45
2024/01/14 02:15:27;;;;;;;28.98;16.52;;;;;;;1.76;100.00;101214.03;1046654;28;20290;-45
2024/01/14 02:15:59;;;;;;;29.25;16.17;;;;;;;1.75;100.00;101212.38;1046617;28;20298;-46
2024/01/14 02:16:31;;;;;;;28.23;15.88;;;;;;;1.76;100.00;101208.78;1046925;28;20306;-46
2024/01/14 02:17:03;;;;;;;29.15;15.85;;;;;;;1.76;100.00;101203.53;1047051;28;20712;-46
2024/01/14 02:17:34;;;;;;;28.45;16.58;;;;;;;1.77;100.00;101206.00;1047142;28;20348;-46
2024/01/14 02:18:06;;;;;;;26.92;16.05;;;;;;;1.81;100.00;101203.91;1047636;28;20291;-46
2024/01/14 02:18:38;;;;;;;30.67;16.95;;;;;;;1.71;100.00;101211.03;1046932;28;20802;-48
2024/01/14 02:19:10;;;;;;;28.15;16.58;;;;;;;1.74;100.00;101210.75;1046558;28;20309;-46
2024/01/14 02:19:42;;;;;;;29.23;17.58;;;;;;;1.76;100.00;101209.59;1047030;28;20670;-45
2024/01/14 02:20:15;;;;;;;29.52;17.48;;;;;;;1.76;100.00;101203.53;1047035;28;20303;-46
2024/01/14 02:20:47;;;;;;;27.23;15.98;;;;;;;1.76;100.00;101206.97;1047109;28;20291;-46
2024/01/14 02:21:22;;;;;;;31.08;16.88;;;;;;;1.77;100.00;101210.44;1047240;28;20733;-47
2024/01/14 02:21:59;;;;;;;27.42;16.73;;;;;;;1.71;100.00;101200.53;1046970;28;20311;-46
2024/01/14 02:22:32;;;;;;;29.83;15.43;;;;;;;1.72;100.00;101202.19;1046641;28;20290;-46
2024/01/14 02:23:06;;;;;;;28.35;16.40;;;;;;;1.71;100.00;101211.03;1047061;28;20377;-51
2024/01/14 02:23:39;;;;;;;28.52;16.00;;;;;;;1.64;100.00;101204.72;1047132;28;20302;-52
2024/01/14 02:24:25;;;;;;;30.75;18.05;;;;;;;1.71;100.00;101200.53;1046703;28;20315;-51
2024/01/14 02:24:57;;;;;;;27.00;16.27;;;;;;;1.72;100.00;101199.56;1047297;28;20440;-53
2024/01/14 02:25:31;;;;;;;29.90;15.75;;;;;;;1.71;100.00;101200.53;1047716;28;20313;-51
2024/01/14 02:26:03;;;;;;;24.63;15.40;;;;;;;1.69;100.00;101202.50;1047672;28;20313;-52